Fords Corner, Texas
Current Conditions -  °F | °C
As of 7:15 PM on Sunday 21 Dec 2014 (Local Time) from KOCH Reporting Station
Overcast Overcast  
Wind Chill: 50°   Ceiling: 2500
Heat Index: 50°   Visibility: 10mi
Dew Point: 45°   Wind: 7mph
Humidity: 82%   Direction: 160°SSE
Pressure: 29.93"   Gusts: NA
Location:  31.516°N, 94.1687°W
Report Text: KOCH 220115Z AUTO 16006KT 10SM OVC025 10/07 A2993 RMK AO1
Loading
Personal Weather Stations






























Interactive Weather Map New forecast layout! Learn more

10-Day Weather Forecast

Advertisements
Track Severe Weather on mobile